createdAt,value
2019-02-06T00:00:07.943Z,4.40
2019-02-06T00:01:03.113Z,4.40
2019-02-06T00:01:45.703Z,4.40
2019-02-06T00:02:23.884Z,4.40
2019-02-06T00:03:02.031Z,4.40
2019-02-06T00:03:39.963Z,4.40
2019-02-06T00:04:18.111Z,4.40
2019-02-06T00:04:55.863Z,4.50
2019-02-06T00:05:33.159Z,4.40
2019-02-06T00:06:11.037Z,4.50
2019-02-06T00:06:48.207Z,4.50
2019-02-06T00:07:26.053Z,4.40
2019-02-06T00:08:04.104Z,4.40
2019-02-06T00:08:42.017Z,4.40
2019-02-06T00:09:20.443Z,4.40
2019-02-06T00:09:57.639Z,4.40
2019-02-06T00:10:35.781Z,4.40
2019-02-06T00:11:13.749Z,4.40
2019-02-06T00:11:51.825Z,4.40
2019-02-06T00:12:33.195Z,4.40
2019-02-06T00:13:17.913Z,4.40
2019-02-06T00:13:56.083Z,4.40
2019-02-06T00:14:33.525Z,4.40
2019-02-06T00:15:11.298Z,4.40
2019-02-06T00:15:48.850Z,4.40
2019-02-06T00:16:26.291Z,4.40
2019-02-06T00:17:03.732Z,4.40
2019-02-06T00:17:41.784Z,4.40
2019-02-06T00:18:19.724Z,4.40
2019-02-06T00:18:57.453Z,4.40
2019-02-06T00:19:34.559Z,4.40
2019-02-06T00:20:12.052Z,4.40
2019-02-06T00:20:49.751Z,4.40
2019-02-06T00:21:27.881Z,4.40
2019-02-06T00:22:08.493Z,4.40
2019-02-06T00:22:46.272Z,4.40
2019-02-06T00:23:24.091Z,4.40
2019-02-06T00:24:02.093Z,4.40
2019-02-06T00:24:40.149Z,4.40
2019-02-06T00:25:20.584Z,4.50
2019-02-06T00:25:58.284Z,4.50
2019-02-06T00:26:36.252Z,4.50
2019-02-06T00:27:23.602Z,4.50
2019-02-06T00:28:01.458Z,4.50
2019-02-06T00:28:39.599Z,4.50
2019-02-06T00:29:19.583Z,4.50
2019-02-06T00:30:00.481Z,4.50
2019-02-06T00:30:37.924Z,4.50
2019-02-06T00:31:18.981Z,4.50
2019-02-06T00:31:57.048Z,4.40
2019-02-06T00:32:34.654Z,4.50
2019-02-06T00:33:14.821Z,4.50
2019-02-06T00:33:52.381Z,4.50
2019-02-06T00:34:29.761Z,4.50
2019-02-06T00:35:08.187Z,4.50
2019-02-06T00:35:46.249Z,4.50
2019-02-06T00:36:23.719Z,4.50
2019-02-06T00:37:01.533Z,4.50
2019-02-06T00:37:39.314Z,4.50
2019-02-06T00:38:17.409Z,4.50
2019-02-06T00:38:55.098Z,4.50
2019-02-06T00:39:32.683Z,4.50
2019-02-06T00:40:11.195Z,4.50
2019-02-06T00:40:49.221Z,4.50
2019-02-06T00:41:26.724Z,4.50
2019-02-06T00:42:08.383Z,4.50
2019-02-06T00:42:51.113Z,4.50
2019-02-06T00:43:34.942Z,4.40
2019-02-06T00:44:12.905Z,4.50
2019-02-06T00:44:50.411Z,4.50
2019-02-06T00:45:28.125Z,4.50
2019-02-06T00:46:06.015Z,4.50
2019-02-06T00:46:44.125Z,4.50
2019-02-06T00:47:21.959Z,4.50
2019-02-06T00:48:00.087Z,4.50
2019-02-06T00:48:37.769Z,4.50
2019-02-06T00:49:15.766Z,4.50
2019-02-06T00:49:53.571Z,4.50
2019-02-06T00:50:31.109Z,4.40
2019-02-06T00:51:09.035Z,4.40
2019-02-06T00:51:46.509Z,4.40
2019-02-06T00:52:23.884Z,4.40
2019-02-06T00:53:01.619Z,4.40
2019-02-06T00:53:39.459Z,4.40
2019-02-06T00:54:17.202Z,4.40
2019-02-06T00:54:54.640Z,4.40
2019-02-06T00:55:32.597Z,4.40
2019-02-06T00:56:10.687Z,4.40
2019-02-06T00:56:51.344Z,4.40
2019-02-06T00:57:28.679Z,4.40
2019-02-06T00:58:06.308Z,4.40
2019-02-06T00:58:44.073Z,4.40
2019-02-06T00:59:21.429Z,4.40
2019-02-06T01:00:00.306Z,4.40
2019-02-06T01:00:38.480Z,4.40
2019-02-06T01:01:20.534Z,4.40
2019-02-06T01:01:58.446Z,4.40
2019-02-06T01:02:36.635Z,4.40
2019-02-06T01:03:14.716Z,4.40
2019-02-06T01:03:52.336Z,4.40
2019-02-06T01:04:30.344Z,4.40
2019-02-06T01:05:08.297Z,4.40
2019-02-06T01:05:46.397Z,4.40
2019-02-06T01:06:24.587Z,4.40
2019-02-06T01:07:02.379Z,4.40
2019-02-06T01:07:40.095Z,4.40
2019-02-06T01:08:18.050Z,4.40
2019-02-06T01:08:55.124Z,4.40
2019-02-06T01:09:32.645Z,4.40
2019-02-06T01:10:11.787Z,4.30
2019-02-06T01:10:50.115Z,4.30
2019-02-06T01:11:28.207Z,4.30
2019-02-06T01:12:06.212Z,4.30
2019-02-06T01:12:43.932Z,4.30
2019-02-06T01:13:21.359Z,4.30
2019-02-06T01:13:59.037Z,4.30
2019-02-06T01:14:36.463Z,4.30
2019-02-06T01:15:14.874Z,4.30
2019-02-06T01:15:53.011Z,4.30
2019-02-06T01:16:30.197Z,4.30
2019-02-06T01:17:08.049Z,4.30
2019-02-06T01:17:45.754Z,4.30
2019-02-06T01:18:23.603Z,4.30
2019-02-06T01:19:01.647Z,4.30
2019-02-06T01:19:39.438Z,4.30
2019-02-06T01:20:17.725Z,4.30
2019-02-06T01:20:56.243Z,4.30
2019-02-06T01:21:34.009Z,4.30
2019-02-06T01:22:11.999Z,4.30
2019-02-06T01:22:49.753Z,4.20
2019-02-06T01:23:27.905Z,4.20
2019-02-06T01:24:06.047Z,4.20
2019-02-06T01:24:43.855Z,4.20
2019-02-06T01:25:21.515Z,4.20
2019-02-06T01:25:59.102Z,4.20
2019-02-06T01:26:36.312Z,4.20
2019-02-06T01:27:13.688Z,4.20
2019-02-06T01:27:51.219Z,4.20
2019-02-06T01:28:29.177Z,4.10
2019-02-06T01:29:09.663Z,4.10
2019-02-06T01:29:47.623Z,4.10
2019-02-06T01:30:26.466Z,4.10
2019-02-06T01:31:07.429Z,4.10
2019-02-06T01:31:44.935Z,4.10
2019-02-06T01:32:22.796Z,4.10
2019-02-06T01:33:00.221Z,4.10
2019-02-06T01:33:39.692Z,4.10
2019-02-06T01:34:17.381Z,4.10
2019-02-06T01:34:57.313Z,4.10
2019-02-06T01:35:35.409Z,4.00
2019-02-06T01:36:13.291Z,4.00
2019-02-06T01:36:50.771Z,4.00
2019-02-06T01:37:28.791Z,4.00
2019-02-06T01:38:06.859Z,4.00
2019-02-06T01:38:44.569Z,4.00
2019-02-06T01:39:22.324Z,4.00
2019-02-06T01:40:00.041Z,4.00
2019-02-06T01:40:37.689Z,4.00
2019-02-06T01:41:15.074Z,4.00
2019-02-06T01:41:52.543Z,4.00
2019-02-06T01:42:36.179Z,4.00
2019-02-06T01:43:19.835Z,4.00
2019-02-06T01:43:57.473Z,4.00
2019-02-06T01:44:35.160Z,4.00
2019-02-06T01:45:14.623Z,4.00
2019-02-06T01:45:58.517Z,4.00
2019-02-06T01:46:36.217Z,3.90
2019-02-06T01:47:13.575Z,3.90
2019-02-06T01:47:51.091Z,3.90
2019-02-06T01:48:28.463Z,3.90
2019-02-06T01:49:06.667Z,3.90
2019-02-06T01:49:44.924Z,3.90
2019-02-06T01:50:23.077Z,3.90
2019-02-06T01:51:01.133Z,3.90
2019-02-06T01:51:41.446Z,3.90
2019-02-06T01:52:21.461Z,3.90
2019-02-06T01:52:59.649Z,3.90
2019-02-06T01:53:37.703Z,4.00
2019-02-06T01:54:15.286Z,4.00
2019-02-06T01:54:53.257Z,4.00
2019-02-06T01:55:31.015Z,4.00
2019-02-06T01:56:11.437Z,4.00
2019-02-06T01:56:49.497Z,4.00
2019-02-06T01:57:27.363Z,4.00
2019-02-06T01:58:05.052Z,4.00
2019-02-06T01:58:42.972Z,4.00
2019-02-06T01:59:20.672Z,4.00
2019-02-06T01:59:59.247Z,4.00
2019-02-06T02:00:37.131Z,4.00
2019-02-06T02:01:18.689Z,4.10
2019-02-06T02:01:56.697Z,4.10
2019-02-06T02:02:34.360Z,4.10
2019-02-06T02:03:11.889Z,4.10
2019-02-06T02:03:49.255Z,4.10
2019-02-06T02:04:29.766Z,4.10
2019-02-06T02:05:07.341Z,4.10
2019-02-06T02:05:45.764Z,4.10
2019-02-06T02:06:23.708Z,4.10
2019-02-06T02:07:01.871Z,4.10
2019-02-06T02:07:39.481Z,4.10
2019-02-06T02:08:18.939Z,4.10
2019-02-06T02:09:00.577Z,4.00
2019-02-06T02:09:38.163Z,4.00
2019-02-06T02:10:16.463Z,4.00
2019-02-06T02:10:54.095Z,4.00
2019-02-06T02:11:31.899Z,4.00
2019-02-06T02:12:12.323Z,4.00
2019-02-06T02:12:50.638Z,4.00
2019-02-06T02:13:28.582Z,4.00
2019-02-06T02:14:06.886Z,4.00
2019-02-06T02:14:44.575Z,4.00
2019-02-06T02:15:24.711Z,4.00
2019-02-06T02:16:02.481Z,4.00
2019-02-06T02:16:40.106Z,4.00
2019-02-06T02:17:17.807Z,4.00
2019-02-06T02:17:55.176Z,4.00
2019-02-06T02:18:32.847Z,4.00
2019-02-06T02:19:11.043Z,4.00
2019-02-06T02:19:48.249Z,4.00
2019-02-06T02:20:26.308Z,4.00
2019-02-06T02:21:05.526Z,4.00
2019-02-06T02:21:43.311Z,4.00
2019-02-06T02:22:20.807Z,4.00
2019-02-06T02:22:58.969Z,4.00
2019-02-06T02:23:36.679Z,4.00
2019-02-06T02:24:14.419Z,4.00
2019-02-06T02:24:51.848Z,4.00
2019-02-06T02:25:29.514Z,4.00
2019-02-06T02:26:07.277Z,4.00
2019-02-06T02:26:45.063Z,4.00
2019-02-06T02:27:22.987Z,4.00
2019-02-06T02:28:00.127Z,4.00
2019-02-06T02:28:37.907Z,4.00
2019-02-06T02:29:15.928Z,4.00
2019-02-06T02:29:54.171Z,4.00
2019-02-06T02:30:42.343Z,4.00
2019-02-06T02:31:19.506Z,4.00
2019-02-06T02:31:56.978Z,4.00
2019-02-06T02:32:34.070Z,4.00
2019-02-06T02:33:11.119Z,4.00
2019-02-06T02:33:48.591Z,4.00
2019-02-06T02:34:26.702Z,4.00
2019-02-06T02:35:06.341Z,4.00
2019-02-06T02:35:44.367Z,4.00
2019-02-06T02:36:21.789Z,4.10
2019-02-06T02:36:59.905Z,4.10
2019-02-06T02:37:37.738Z,4.10
2019-02-06T02:38:15.170Z,4.10
2019-02-06T02:38:52.927Z,4.10
2019-02-06T02:39:30.313Z,4.10
2019-02-06T02:40:11.936Z,4.10
2019-02-06T02:40:49.896Z,4.10
2019-02-06T02:41:27.830Z,4.10
2019-02-06T02:42:05.344Z,4.10
2019-02-06T02:42:43.103Z,4.10
2019-02-06T02:43:20.911Z,4.00
2019-02-06T02:43:58.643Z,4.00
2019-02-06T02:44:39.712Z,4.00
2019-02-06T02:45:18.714Z,4.00
2019-02-06T02:45:56.448Z,4.00
2019-02-06T02:46:34.248Z,4.00
2019-02-06T02:47:11.964Z,4.00
2019-02-06T02:47:49.447Z,4.00
2019-02-06T02:48:27.542Z,4.00
2019-02-06T02:49:05.424Z,4.00
2019-02-06T02:49:42.887Z,4.00
2019-02-06T02:50:20.990Z,4.00
2019-02-06T02:50:58.062Z,4.00
2019-02-06T02:51:35.831Z,4.00
2019-02-06T02:52:13.197Z,4.00
2019-02-06T02:52:51.611Z,4.00
2019-02-06T02:53:29.382Z,4.00
2019-02-06T02:54:07.418Z,4.00
2019-02-06T02:54:45.390Z,4.00
2019-02-06T02:55:22.843Z,4.00
2019-02-06T02:56:00.598Z,4.00
2019-02-06T02:56:38.737Z,4.00
2019-02-06T02:57:16.843Z,3.90
2019-02-06T02:57:54.529Z,3.90
2019-02-06T02:58:32.512Z,3.90
2019-02-06T02:59:10.452Z,3.90
2019-02-06T02:59:48.383Z,3.90
2019-02-06T03:00:44.395Z,3.90
2019-02-06T03:01:36.215Z,3.90
2019-02-06T03:02:46.881Z,3.90
2019-02-06T03:03:35.383Z,3.90
2019-02-06T03:04:21.056Z,3.90
2019-02-06T03:05:03.022Z,3.90
2019-02-06T03:05:40.214Z,3.90
2019-02-06T03:06:27.530Z,3.90
2019-02-06T03:06:57.631Z,3.90
2019-02-06T03:07:35.716Z,3.90
2019-02-06T03:08:13.837Z,3.90
2019-02-06T03:08:55.900Z,3.90
2019-02-06T03:09:33.788Z,3.90
2019-02-06T03:10:12.598Z,3.90
2019-02-06T03:10:49.871Z,3.90
2019-02-06T03:11:27.675Z,3.90
2019-02-06T03:12:04.945Z,3.90
2019-02-06T03:12:45.007Z,3.90
2019-02-06T03:13:22.453Z,3.90
2019-02-06T03:13:59.933Z,3.90
2019-02-06T03:14:38.130Z,3.90
2019-02-06T03:15:16.392Z,3.90
2019-02-06T03:15:54.106Z,3.90
2019-02-06T03:16:31.502Z,3.90
2019-02-06T03:17:09.383Z,3.90
2019-02-06T03:17:46.852Z,3.90
2019-02-06T03:18:24.560Z,3.90
2019-02-06T03:19:01.935Z,3.90
2019-02-06T03:19:39.589Z,3.90
2019-02-06T03:20:17.280Z,3.90
2019-02-06T03:20:54.989Z,3.90
2019-02-06T03:21:32.758Z,3.90
2019-02-06T03:22:10.344Z,3.90
2019-02-06T03:22:49.923Z,3.90
2019-02-06T03:23:31.406Z,3.90
2019-02-06T03:24:08.595Z,3.90
2019-02-06T03:24:46.612Z,3.90
2019-02-06T03:25:24.293Z,3.90
2019-02-06T03:26:01.966Z,3.90
2019-02-06T03:26:39.745Z,3.90
2019-02-06T03:27:17.530Z,3.90
2019-02-06T03:27:55.500Z,3.90
2019-02-06T03:28:33.315Z,3.90
2019-02-06T03:29:13.140Z,3.90
2019-02-06T03:29:50.833Z,3.90
2019-02-06T03:30:28.321Z,3.90
2019-02-06T03:31:06.327Z,3.90
2019-02-06T03:31:44.333Z,3.90
2019-02-06T03:32:22.340Z,3.90
2019-02-06T03:33:00.269Z,3.90
2019-02-06T03:33:37.745Z,3.90
2019-02-06T03:34:17.511Z,3.90
2019-02-06T03:34:58.848Z,3.90
2019-02-06T03:35:42.739Z,3.90
2019-02-06T03:36:19.460Z,3.90
2019-02-06T03:36:57.150Z,3.90
2019-02-06T03:37:34.817Z,3.90
2019-02-06T03:38:12.916Z,3.90
2019-02-06T03:38:50.796Z,3.90
2019-02-06T03:39:28.783Z,3.90
2019-02-06T03:40:07.856Z,3.90
2019-02-06T03:40:45.996Z,3.90
2019-02-06T03:41:23.102Z,3.90
2019-02-06T03:42:00.836Z,3.80
2019-02-06T03:42:54.397Z,3.90
2019-02-06T03:43:40.901Z,3.90
2019-02-06T03:44:18.021Z,3.90
2019-02-06T03:44:55.533Z,3.90
2019-02-06T03:45:33.074Z,3.90
2019-02-06T03:46:11.218Z,3.90
2019-02-06T03:46:49.007Z,3.90
2019-02-06T03:47:26.793Z,3.90
2019-02-06T03:48:04.784Z,3.90
2019-02-06T03:48:44.055Z,3.90
2019-02-06T03:49:24.119Z,3.90
2019-02-06T03:50:02.376Z,3.90
2019-02-06T03:50:47.397Z,3.90
2019-02-06T03:51:24.457Z,3.90
2019-02-06T03:52:02.516Z,3.90
2019-02-06T03:52:40.591Z,3.90
2019-02-06T03:53:18.340Z,3.90
2019-02-06T03:53:56.591Z,3.90
2019-02-06T03:54:34.268Z,3.90
2019-02-06T03:55:14.968Z,3.90
2019-02-06T03:55:52.449Z,3.90
2019-02-06T03:56:30.237Z,3.90
2019-02-06T03:57:07.713Z,3.90
2019-02-06T03:57:45.553Z,3.90
2019-02-06T03:58:23.732Z,3.90
2019-02-06T03:59:01.351Z,3.90
2019-02-06T03:59:39.216Z,3.90
2019-02-06T04:00:17.048Z,3.90
2019-02-06T04:00:53.862Z,3.90
2019-02-06T04:01:31.993Z,3.90
2019-02-06T04:02:09.487Z,3.90
2019-02-06T04:02:47.169Z,3.90
2019-02-06T04:03:33.609Z,3.90
2019-02-06T04:04:11.188Z,3.80
2019-02-06T04:04:48.308Z,3.90
2019-02-06T04:05:26.196Z,3.90
2019-02-06T04:06:03.672Z,3.80
2019-02-06T04:06:52.879Z,3.80
2019-02-06T04:07:20.349Z,3.80
2019-02-06T04:07:57.458Z,3.80
2019-02-06T04:08:34.614Z,3.80
2019-02-06T04:09:12.516Z,3.80
2019-02-06T04:09:50.503Z,3.80
2019-02-06T04:10:28.436Z,3.80
2019-02-06T04:11:06.168Z,3.80
2019-02-06T04:11:47.442Z,3.80
2019-02-06T04:12:24.913Z,3.80
2019-02-06T04:13:02.936Z,3.80
2019-02-06T04:13:41.060Z,3.80
2019-02-06T04:14:18.279Z,3.80
2019-02-06T04:14:55.960Z,3.80
2019-02-06T04:15:34.153Z,3.80
2019-02-06T04:16:11.628Z,3.80
2019-02-06T04:16:51.784Z,3.80
2019-02-06T04:17:29.981Z,3.80
2019-02-06T04:18:07.590Z,3.80
2019-02-06T04:18:46.083Z,3.90
2019-02-06T04:19:29.877Z,3.80
2019-02-06T04:20:09.296Z,3.80
2019-02-06T04:20:47.426Z,3.80
2019-02-06T04:21:25.576Z,3.80
2019-02-06T04:22:03.704Z,3.80
2019-02-06T04:22:41.881Z,3.80
2019-02-06T04:23:19.665Z,3.80
2019-02-06T04:23:57.659Z,3.80
2019-02-06T04:24:35.678Z,3.80
2019-02-06T04:25:13.380Z,3.80
2019-02-06T04:25:51.328Z,3.80
2019-02-06T04:26:28.750Z,3.80
2019-02-06T04:27:06.684Z,3.80
2019-02-06T04:27:48.668Z,3.80
2019-02-06T04:28:28.862Z,3.80
2019-02-06T04:29:06.648Z,3.80
2019-02-06T04:29:44.094Z,3.80
2019-02-06T04:30:22.304Z,3.80
2019-02-06T04:30:59.748Z,3.80
2019-02-06T04:31:37.777Z,3.80
2019-02-06T04:32:15.225Z,3.80
2019-02-06T04:32:53.148Z,3.80
2019-02-06T04:33:30.804Z,3.80
2019-02-06T04:34:07.980Z,3.70
2019-02-06T04:34:45.084Z,3.80
2019-02-06T04:35:22.304Z,3.80
2019-02-06T04:36:01.266Z,3.70
2019-02-06T04:36:38.932Z,3.80
2019-02-06T04:37:18.600Z,3.80
2019-02-06T04:37:59.191Z,3.80
2019-02-06T04:38:37.079Z,3.80
2019-02-06T04:39:15.224Z,3.80
2019-02-06T04:39:53.395Z,3.80
2019-02-06T04:40:33.330Z,3.80
2019-02-06T04:41:10.854Z,3.80
2019-02-06T04:41:48.333Z,3.80
2019-02-06T04:42:25.836Z,3.70
2019-02-06T04:43:03.208Z,3.80
2019-02-06T04:43:41.194Z,3.80
2019-02-06T04:44:18.944Z,3.80
2019-02-06T04:44:56.549Z,3.70
2019-02-06T04:45:34.356Z,3.80
2019-02-06T04:46:12.479Z,3.80
2019-02-06T04:46:50.026Z,3.80
2019-02-06T04:47:27.524Z,3.80
2019-02-06T04:48:05.084Z,3.80
2019-02-06T04:48:43.021Z,3.80
2019-02-06T04:49:20.400Z,3.80
2019-02-06T04:49:58.297Z,3.80
2019-02-06T04:50:36.352Z,3.80
2019-02-06T04:51:13.866Z,3.80
2019-02-06T04:51:51.390Z,3.80
2019-02-06T04:52:46.323Z,3.80
2019-02-06T04:53:40.138Z,3.80
2019-02-06T04:54:34.264Z,3.80
2019-02-06T04:55:30.382Z,3.80
2019-02-06T04:56:08.228Z,3.80
2019-02-06T04:56:45.906Z,3.80
2019-02-06T04:57:23.380Z,3.80
2019-02-06T04:58:00.709Z,3.80
2019-02-06T04:58:38.226Z,3.70
2019-02-06T04:59:15.457Z,3.80
2019-02-06T04:59:56.245Z,3.70
2019-02-06T05:00:34.048Z,3.70
2019-02-06T05:01:11.848Z,3.70
2019-02-06T05:01:49.872Z,3.70
2019-02-06T05:02:29.961Z,3.70
2019-02-06T05:03:13.800Z,3.70
2019-02-06T05:03:51.270Z,3.70
2019-02-06T05:04:29.325Z,3.70
2019-02-06T05:05:08.099Z,3.70
2019-02-06T05:05:45.650Z,3.70
2019-02-06T05:06:23.248Z,3.70
2019-02-06T05:07:01.444Z,3.70
2019-02-06T05:07:38.901Z,3.60
2019-02-06T05:08:16.725Z,3.60
2019-02-06T05:08:54.165Z,3.60
2019-02-06T05:09:35.456Z,3.60
2019-02-06T05:10:13.877Z,3.60
2019-02-06T05:10:51.833Z,3.60
2019-02-06T05:11:29.300Z,3.60
2019-02-06T05:12:09.544Z,3.60
2019-02-06T05:12:46.284Z,3.60
2019-02-06T05:13:24.483Z,3.60
2019-02-06T05:14:08.262Z,3.60
2019-02-06T05:14:45.722Z,3.60
2019-02-06T05:15:23.852Z,3.60
2019-02-06T05:16:01.592Z,3.60
2019-02-06T05:16:39.631Z,3.60
2019-02-06T05:17:17.795Z,3.50
2019-02-06T05:17:56.014Z,3.50
2019-02-06T05:18:33.754Z,3.50
2019-02-06T05:19:11.232Z,3.50
2019-02-06T05:19:48.812Z,3.50
2019-02-06T05:20:37.203Z,3.50
2019-02-06T05:21:19.476Z,3.50
2019-02-06T05:21:57.125Z,3.50
2019-02-06T05:22:34.845Z,3.50
2019-02-06T05:23:13.054Z,3.50
2019-02-06T05:23:50.797Z,3.50
2019-02-06T05:24:28.808Z,3.50
2019-02-06T05:25:07.104Z,3.50
2019-02-06T05:25:44.556Z,3.50
2019-02-06T05:26:22.460Z,3.50
2019-02-06T05:27:00.977Z,3.50
2019-02-06T05:27:38.852Z,3.50
2019-02-06T05:28:18.277Z,3.50
2019-02-06T05:28:55.882Z,3.50
2019-02-06T05:29:33.861Z,3.50
2019-02-06T05:30:12.288Z,3.50
2019-02-06T05:30:50.017Z,3.50
2019-02-06T05:31:27.298Z,3.50
2019-02-06T05:32:04.973Z,3.50
2019-02-06T05:32:42.967Z,3.50
2019-02-06T05:33:21.078Z,3.50
2019-02-06T05:33:58.855Z,3.50
2019-02-06T05:34:36.529Z,3.50
2019-02-06T05:35:23.982Z,3.50
2019-02-06T05:36:01.325Z,3.50
2019-02-06T05:36:39.276Z,3.50
2019-02-06T05:37:16.322Z,3.50
2019-02-06T05:37:55.929Z,3.50
2019-02-06T05:38:33.801Z,3.50
2019-02-06T05:39:21.922Z,3.50
2019-02-06T05:39:59.729Z,3.50
2019-02-06T05:40:38.028Z,3.50
2019-02-06T05:41:18.043Z,3.50
2019-02-06T05:41:55.852Z,3.50
2019-02-06T05:42:33.612Z,3.50
2019-02-06T05:43:11.199Z,3.50
2019-02-06T05:43:48.985Z,3.50
2019-02-06T05:44:26.589Z,3.50
2019-02-06T05:45:04.046Z,3.50
2019-02-06T05:45:42.189Z,3.50
2019-02-06T05:46:20.025Z,3.50
2019-02-06T05:46:58.038Z,3.50
2019-02-06T05:47:36.216Z,3.50
2019-02-06T05:48:13.690Z,3.50
2019-02-06T05:48:50.761Z,3.50
2019-02-06T05:49:28.249Z,3.50
2019-02-06T05:50:06.940Z,3.50
2019-02-06T05:50:45.065Z,3.50
2019-02-06T05:51:22.518Z,3.50
2019-02-06T05:52:02.886Z,3.50
2019-02-06T05:52:39.691Z,3.50
2019-02-06T05:53:17.816Z,3.50
2019-02-06T05:53:54.890Z,3.50
2019-02-06T05:54:32.571Z,3.50
2019-02-06T05:55:10.059Z,3.50
2019-02-06T05:55:47.529Z,3.50
2019-02-06T05:56:25.406Z,3.50
2019-02-06T05:57:03.407Z,3.50
2019-02-06T05:57:41.193Z,3.50
2019-02-06T05:58:18.699Z,3.40
2019-02-06T05:58:56.799Z,3.40
2019-02-06T05:59:37.029Z,3.40
2019-02-06T06:00:20.215Z,3.40
2019-02-06T06:00:58.282Z,3.40
2019-02-06T06:01:35.541Z,3.40
2019-02-06T06:02:13.376Z,3.40
2019-02-06T06:02:51.536Z,3.40
2019-02-06T06:03:29.564Z,3.40
2019-02-06T06:04:07.310Z,3.40
2019-02-06T06:04:45.068Z,3.40
2019-02-06T06:05:23.189Z,3.40
2019-02-06T06:06:00.710Z,3.40
2019-02-06T06:06:38.541Z,3.40
2019-02-06T06:07:16.653Z,3.40
2019-02-06T06:07:54.511Z,3.40
2019-02-06T06:08:32.460Z,3.40
2019-02-06T06:09:10.802Z,3.30
2019-02-06T06:09:48.377Z,3.30
2019-02-06T06:10:26.232Z,3.30
2019-02-06T06:11:03.967Z,3.30
2019-02-06T06:11:41.873Z,3.30
2019-02-06T06:12:19.929Z,3.30
2019-02-06T06:12:57.717Z,3.30
2019-02-06T06:13:35.696Z,3.30
2019-02-06T06:14:13.202Z,3.30
2019-02-06T06:14:50.855Z,3.20
2019-02-06T06:15:28.949Z,3.30
2019-02-06T06:16:06.917Z,3.30
2019-02-06T06:16:44.619Z,3.30
2019-02-06T06:17:22.254Z,3.20
2019-02-06T06:18:00.535Z,3.20
2019-02-06T06:18:38.161Z,3.20
2019-02-06T06:19:16.277Z,3.30
2019-02-06T06:19:54.047Z,3.30
2019-02-06T06:20:31.157Z,3.20
2019-02-06T06:21:08.933Z,3.20
2019-02-06T06:21:46.573Z,3.20
2019-02-06T06:22:24.589Z,3.20
2019-02-06T06:23:02.284Z,3.20
2019-02-06T06:23:40.267Z,3.20
2019-02-06T06:24:17.639Z,3.20
2019-02-06T06:24:55.323Z,3.20
2019-02-06T06:25:32.730Z,3.20
2019-02-06T06:26:10.681Z,3.20
2019-02-06T06:26:47.777Z,3.20
2019-02-06T06:27:25.225Z,3.20
2019-02-06T06:28:03.234Z,3.20
2019-02-06T06:28:40.287Z,3.20
2019-02-06T06:29:18.278Z,3.20
2019-02-06T06:29:55.652Z,3.20
2019-02-06T06:30:33.827Z,3.20
2019-02-06T06:31:11.666Z,3.20
2019-02-06T06:31:49.317Z,3.20
2019-02-06T06:32:26.723Z,3.20
2019-02-06T06:33:04.734Z,3.20
2019-02-06T06:33:42.403Z,3.20
2019-02-06T06:34:20.081Z,3.20
2019-02-06T06:34:57.835Z,3.20
2019-02-06T06:35:35.327Z,3.10
2019-02-06T06:36:12.485Z,3.20
2019-02-06T06:36:49.878Z,3.20
2019-02-06T06:37:27.659Z,3.10
2019-02-06T06:38:06.132Z,3.10
2019-02-06T06:38:43.543Z,3.10
2019-02-06T06:39:21.209Z,3.10
2019-02-06T06:39:59.213Z,3.10
2019-02-06T06:40:37.129Z,3.10
2019-02-06T06:41:14.842Z,3.10
2019-02-06T06:41:51.844Z,3.10
2019-02-06T06:42:29.648Z,3.10
2019-02-06T06:43:07.357Z,3.10
2019-02-06T06:43:45.007Z,3.10
2019-02-06T06:44:23.110Z,3.10
2019-02-06T06:45:02.014Z,3.10
2019-02-06T06:45:39.694Z,3.10
2019-02-06T06:46:17.163Z,3.10
2019-02-06T06:46:54.949Z,3.10
2019-02-06T06:47:32.538Z,3.10
2019-02-06T06:48:10.401Z,3.10
2019-02-06T06:48:48.243Z,3.10
2019-02-06T06:49:26.306Z,3.10
2019-02-06T06:50:08.861Z,3.10
2019-02-06T06:50:46.999Z,3.10
2019-02-06T06:51:25.105Z,3.10
2019-02-06T06:52:04.007Z,3.10
2019-02-06T06:52:44.689Z,3.10
2019-02-06T06:53:27.085Z,3.10
2019-02-06T06:54:04.962Z,3.10
2019-02-06T06:54:43.362Z,3.10
2019-02-06T06:55:21.554Z,3.10
2019-02-06T06:55:59.663Z,3.10
2019-02-06T06:56:37.722Z,3.10
2019-02-06T06:57:15.812Z,3.10
2019-02-06T06:57:53.531Z,3.10
2019-02-06T06:58:30.895Z,3.10
2019-02-06T06:59:08.852Z,3.10
2019-02-06T06:59:46.574Z,3.10
2019-02-06T07:00:28.681Z,3.10
2019-02-06T07:01:06.145Z,3.10
2019-02-06T07:01:44.053Z,3.10
2019-02-06T07:02:22.025Z,3.10
2019-02-06T07:03:00.115Z,3.10
2019-02-06T07:03:38.091Z,3.10
2019-02-06T07:04:15.255Z,3.10
2019-02-06T07:04:52.783Z,3.10
2019-02-06T07:05:30.615Z,3.10
2019-02-06T07:06:08.315Z,3.10
2019-02-06T07:06:46.546Z,3.10
2019-02-06T07:07:24.596Z,3.10
2019-02-06T07:08:09.679Z,3.10
2019-02-06T07:08:41.903Z,3.10
2019-02-06T07:09:19.707Z,3.10
2019-02-06T07:09:57.467Z,3.10
2019-02-06T07:10:35.219Z,3.10
2019-02-06T07:11:13.132Z,3.10
2019-02-06T07:11:50.625Z,3.10
2019-02-06T07:12:28.412Z,3.10
2019-02-06T07:13:06.193Z,3.10
2019-02-06T07:13:43.311Z,3.10
2019-02-06T07:14:20.843Z,3.00
2019-02-06T07:14:58.533Z,3.10
2019-02-06T07:15:36.929Z,3.10
2019-02-06T07:16:14.409Z,3.10
2019-02-06T07:16:52.055Z,3.10
2019-02-06T07:17:30.133Z,3.10
2019-02-06T07:18:08.347Z,3.10
2019-02-06T07:18:46.273Z,3.10
2019-02-06T07:19:23.987Z,3.10
2019-02-06T07:20:01.637Z,3.10
2019-02-06T07:20:39.343Z,3.10
2019-02-06T07:21:17.206Z,3.10
2019-02-06T07:21:54.990Z,3.10
2019-02-06T07:22:32.673Z,3.10
2019-02-06T07:23:10.817Z,3.10
2019-02-06T07:23:48.451Z,3.10
2019-02-06T07:24:26.457Z,3.10
2019-02-06T07:25:05.969Z,3.10
2019-02-06T07:25:46.741Z,3.10
2019-02-06T07:26:26.557Z,3.20
2019-02-06T07:27:04.514Z,3.20
2019-02-06T07:27:42.335Z,3.20
2019-02-06T07:28:20.403Z,3.20
2019-02-06T07:28:58.211Z,3.20
2019-02-06T07:29:36.429Z,3.20
2019-02-06T07:30:22.725Z,3.20
2019-02-06T07:31:00.683Z,3.20
2019-02-06T07:31:38.573Z,3.20
2019-02-06T07:32:22.295Z,3.30
2019-02-06T07:33:00.750Z,3.30
2019-02-06T07:33:38.717Z,3.30
2019-02-06T07:34:16.750Z,3.30
2019-02-06T07:34:57.465Z,3.30
2019-02-06T07:35:35.760Z,3.30
2019-02-06T07:36:15.157Z,3.40
2019-02-06T07:36:52.860Z,3.40
2019-02-06T07:37:30.561Z,3.40
2019-02-06T07:38:08.308Z,3.40
2019-02-06T07:38:46.011Z,3.40
2019-02-06T07:39:23.696Z,3.40
2019-02-06T07:40:01.057Z,3.40
2019-02-06T07:40:39.066Z,3.50
2019-02-06T07:41:16.743Z,3.50
2019-02-06T07:41:57.148Z,3.50
2019-02-06T07:42:34.957Z,3.50
2019-02-06T07:43:13.063Z,3.50
2019-02-06T07:43:50.580Z,3.60
2019-02-06T07:44:28.488Z,3.60
2019-02-06T07:45:09.163Z,3.60
2019-02-06T07:45:49.141Z,3.60
2019-02-06T07:46:27.373Z,3.60
2019-02-06T07:47:04.797Z,3.70
2019-02-06T07:47:43.321Z,3.70
2019-02-06T07:48:21.002Z,3.70
2019-02-06T07:48:58.679Z,3.70
2019-02-06T07:49:36.801Z,3.70
2019-02-06T07:50:17.399Z,3.80
2019-02-06T07:50:54.510Z,3.80
2019-02-06T07:51:32.271Z,3.80
2019-02-06T07:52:10.181Z,3.80
2019-02-06T07:52:48.158Z,3.80
2019-02-06T07:53:25.875Z,3.80
2019-02-06T07:54:03.602Z,3.80
2019-02-06T07:54:41.433Z,3.80
2019-02-06T07:55:18.903Z,3.80
2019-02-06T07:55:56.363Z,3.80
2019-02-06T07:56:36.608Z,3.90
2019-02-06T07:57:14.272Z,3.90
2019-02-06T07:57:51.667Z,3.90
2019-02-06T07:58:29.685Z,3.80
2019-02-06T07:59:08.107Z,3.90
2019-02-06T07:59:45.641Z,3.90
2019-02-06T08:00:23.358Z,3.90
2019-02-06T08:01:01.329Z,3.90
2019-02-06T08:01:38.954Z,3.80
2019-02-06T08:02:19.405Z,3.80
2019-02-06T08:02:57.606Z,3.80
2019-02-06T08:03:35.317Z,3.80
2019-02-06T08:04:13.451Z,3.80
2019-02-06T08:04:51.415Z,3.80
2019-02-06T08:05:29.253Z,3.80
2019-02-06T08:06:07.290Z,3.80
2019-02-06T08:07:03.915Z,3.80
2019-02-06T08:07:48.546Z,3.80
2019-02-06T08:08:35.724Z,3.80
2019-02-06T08:09:08.373Z,3.80
2019-02-06T08:09:46.327Z,3.80
2019-02-06T08:10:30.286Z,3.80
2019-02-06T08:11:07.733Z,3.80
2019-02-06T08:11:45.107Z,3.80
2019-02-06T08:12:22.689Z,3.80
2019-02-06T08:13:01.200Z,3.80
2019-02-06T08:13:38.790Z,3.80
2019-02-06T08:14:16.302Z,3.80
2019-02-06T08:14:54.238Z,3.80
2019-02-06T08:15:31.828Z,3.80
2019-02-06T08:16:09.028Z,3.80
2019-02-06T08:16:46.787Z,3.80
2019-02-06T08:17:24.255Z,3.80
2019-02-06T08:18:02.363Z,3.80
2019-02-06T08:18:40.039Z,3.80
2019-02-06T08:19:18.041Z,3.80
2019-02-06T08:19:55.706Z,3.80
2019-02-06T08:20:33.305Z,3.80
2019-02-06T08:21:10.769Z,3.80
2019-02-06T08:21:49.768Z,3.80
2019-02-06T08:22:27.669Z,3.80
2019-02-06T08:23:05.494Z,3.80
2019-02-06T08:23:43.343Z,3.80
2019-02-06T08:24:20.774Z,3.80
2019-02-06T08:24:58.519Z,3.80
2019-02-06T08:25:36.299Z,3.80
2019-02-06T08:26:13.980Z,3.80
2019-02-06T08:26:56.557Z,3.80
2019-02-06T08:27:34.593Z,3.80
2019-02-06T08:28:11.945Z,3.80
2019-02-06T08:28:50.193Z,3.80
2019-02-06T08:29:28.364Z,3.80
2019-02-06T08:30:08.477Z,3.80
2019-02-06T08:30:46.057Z,3.80
2019-02-06T08:31:24.359Z,3.80
2019-02-06T08:32:02.035Z,3.80
2019-02-06T08:32:39.413Z,3.80